sensor_id;sensor_type;location;lat;lon;timestamp;pressure;altitude;pressure_sealevel;temperature
29701;BMP280;57917;51.380;-0.176;2022-08-19T00:26:03;101077.22;;;20.98
29701;BMP280;57917;51.380;-0.176;2022-08-19T00:32:54;101074.31;;;21.03
29701;BMP280;57917;51.380;-0.176;2022-08-19T00:45:56;101072.69;;;21.14
29701;BMP280;57917;51.380;-0.176;2022-08-19T00:51:46;101053.63;;;21.19
29701;BMP280;57917;51.380;-0.176;2022-08-19T00:57:38;101048.16;;;21.16
29701;BMP280;57917;51.380;-0.176;2022-08-19T01:03:27;101056.84;;;21.25
29701;BMP280;57917;51.380;-0.176;2022-08-19T01:09:16;101045.63;;;21.23
29701;BMP280;57917;51.380;-0.176;2022-08-19T01:15:05;101045.97;;;21.21
29701;BMP280;57917;51.380;-0.176;2022-08-19T01:20:54;101041.56;;;21.29
29701;BMP280;57917;51.380;-0.176;2022-08-19T01:26:44;101045.50;;;21.31
29701;BMP280;57917;51.380;-0.176;2022-08-19T01:32:32;101045.41;;;21.28
29701;BMP280;57917;51.380;-0.176;2022-08-19T01:38:26;101044.53;;;21.24
29701;BMP280;57917;51.380;-0.176;2022-08-19T01:44:13;101037.22;;;21.24
29701;BMP280;57917;51.380;-0.176;2022-08-19T01:50:10;101037.16;;;21.36
29701;BMP280;57917;51.380;-0.176;2022-08-19T01:55:57;101040.78;;;21.28
29701;BMP280;57917;51.380;-0.176;2022-08-19T02:01:51;101031.09;;;21.39
29701;BMP280;57917;51.380;-0.176;2022-08-19T02:07:41;101021.69;;;21.33
29701;BMP280;57917;51.380;-0.176;2022-08-19T02:13:28;101032.38;;;21.30
29701;BMP280;57917;51.380;-0.176;2022-08-19T02:19:16;101041.94;;;21.27
29701;BMP280;57917;51.380;-0.176;2022-08-19T02:25:03;101039.56;;;21.26
29701;BMP280;57917;51.380;-0.176;2022-08-19T02:30:51;101038.22;;;21.32
29701;BMP280;57917;51.380;-0.176;2022-08-19T02:36:40;101026.41;;;21.36
29701;BMP280;57917;51.380;-0.176;2022-08-19T02:42:28;101033.44;;;21.41
29701;BMP280;57917;51.380;-0.176;2022-08-19T02:48:19;101032.25;;;21.26
29701;BMP280;57917;51.380;-0.176;2022-08-19T02:54:08;101030.78;;;21.29
29701;BMP280;57917;51.380;-0.176;2022-08-19T02:59:58;101032.91;;;21.35
29701;BMP280;57917;51.380;-0.176;2022-08-19T03:05:48;101043.22;;;21.33
29701;BMP280;57917;51.380;-0.176;2022-08-19T03:11:43;101057.41;;;21.18
29701;BMP280;57917;51.380;-0.176;2022-08-19T03:17:30;101061.03;;;21.10
29701;BMP280;57917;51.380;-0.176;2022-08-19T03:23:18;101065.78;;;21.01
29701;BMP280;57917;51.380;-0.176;2022-08-19T03:29:05;101065.13;;;20.92
29701;BMP280;57917;51.380;-0.176;2022-08-19T03:34:54;101057.06;;;20.92
29701;BMP280;57917;51.380;-0.176;2022-08-19T03:40:40;101061.28;;;20.93
29701;BMP280;57917;51.380;-0.176;2022-08-19T03:46:30;101067.53;;;20.97
29701;BMP280;57917;51.380;-0.176;2022-08-19T03:52:18;101071.41;;;20.96
29701;BMP280;57917;51.380;-0.176;2022-08-19T03:58:06;101066.41;;;21.10
29701;BMP280;57917;51.380;-0.176;2022-08-19T04:03:53;101066.53;;;21.14
29701;BMP280;57917;51.380;-0.176;2022-08-19T04:09:41;101054.41;;;21.20
29701;BMP280;57917;51.380;-0.176;2022-08-19T04:15:28;101047.34;;;21.15
29701;BMP280;57917;51.380;-0.176;2022-08-19T04:21:19;101065.34;;;20.99
29701;BMP280;57917;51.380;-0.176;2022-08-19T04:27:06;101063.53;;;21.03
29701;BMP280;57917;51.380;-0.176;2022-08-19T04:32:56;101060.84;;;21.03
29701;BMP280;57917;51.380;-0.176;2022-08-19T04:38:43;101055.78;;;21.14
29701;BMP280;57917;51.380;-0.176;2022-08-19T04:44:31;101070.59;;;20.96
29701;BMP280;57917;51.380;-0.176;2022-08-19T04:50:20;101074.31;;;20.91
29701;BMP280;57917;51.380;-0.176;2022-08-19T04:56:14;101082.81;;;20.93
29701;BMP280;57917;51.380;-0.176;2022-08-19T05:02:03;101090.91;;;20.81
29701;BMP280;57917;51.380;-0.176;2022-08-19T05:07:50;101096.28;;;20.81
29701;BMP280;57917;51.380;-0.176;2022-08-19T05:13:40;101098.97;;;20.93
29701;BMP280;57917;51.380;-0.176;2022-08-19T05:19:27;101114.91;;;20.86
29701;BMP280;57917;51.380;-0.176;2022-08-19T05:25:34;101107.41;;;20.92
29701;BMP280;57917;51.380;-0.176;2022-08-19T05:31:21;101114.22;;;20.89
29701;BMP280;57917;51.380;-0.176;2022-08-19T05:37:08;101104.16;;;20.86
29701;BMP280;57917;51.380;-0.176;2022-08-19T05:42:55;101099.66;;;20.90
29701;BMP280;57917;51.380;-0.176;2022-08-19T05:48:42;101099.41;;;21.07
29701;BMP280;57917;51.380;-0.176;2022-08-19T05:54:29;101098.84;;;21.14
29701;BMP280;57917;51.380;-0.176;2022-08-19T06:00:16;101104.00;;;21.07
29701;BMP280;57917;51.380;-0.176;2022-08-19T06:06:11;101103.91;;;21.15
29701;BMP280;57917;51.380;-0.176;2022-08-19T06:11:59;101102.31;;;21.02
29701;BMP280;57917;51.380;-0.176;2022-08-19T06:17:47;101100.09;;;21.04
29701;BMP280;57917;51.380;-0.176;2022-08-19T06:23:34;101099.16;;;21.24
29701;BMP280;57917;51.380;-0.176;2022-08-19T06:29:24;101114.06;;;21.34
29701;BMP280;57917;51.380;-0.176;2022-08-19T06:35:12;101112.28;;;21.26
29701;BMP280;57917;51.380;-0.176;2022-08-19T06:41:03;101116.66;;;21.18
29701;BMP280;57917;51.380;-0.176;2022-08-19T06:46:56;101125.41;;;21.27
29701;BMP280;57917;51.380;-0.176;2022-08-19T06:52:43;101115.34;;;21.12
29701;BMP280;57917;51.380;-0.176;2022-08-19T06:58:31;101118.03;;;21.12
29701;BMP280;57917;51.380;-0.176;2022-08-19T07:04:31;101125.97;;;21.21
29701;BMP280;57917;51.380;-0.176;2022-08-19T07:10:28;101138.59;;;21.44
29701;BMP280;57917;51.380;-0.176;2022-08-19T07:16:18;101138.66;;;21.60
29701;BMP280;57917;51.380;-0.176;2022-08-19T07:22:17;101131.91;;;21.66
29701;BMP280;57917;51.380;-0.176;2022-08-19T07:28:04;101148.69;;;21.87
29701;BMP280;57917;51.380;-0.176;2022-08-19T07:34:11;101143.50;;;22.09
29701;BMP280;57917;51.380;-0.176;2022-08-19T07:40:05;101133.00;;;22.20
29701;BMP280;57917;51.380;-0.176;2022-08-19T07:46:03;101123.91;;;22.40
29701;BMP280;57917;51.380;-0.176;2022-08-19T07:52:02;101123.69;;;22.64
29701;BMP280;57917;51.380;-0.176;2022-08-19T07:57:53;101114.88;;;22.83
29701;BMP280;57917;51.380;-0.176;2022-08-19T08:03:40;101119.78;;;22.62
29701;BMP280;57917;51.380;-0.176;2022-08-19T08:09:48;101122.28;;;22.86
29701;BMP280;57917;51.380;-0.176;2022-08-19T08:15:37;101132.81;;;23.25
29701;BMP280;57917;51.380;-0.176;2022-08-19T08:21:32;101140.66;;;22.96
29701;BMP280;57917;51.380;-0.176;2022-08-19T08:27:20;101144.28;;;23.03
29701;BMP280;57917;51.380;-0.176;2022-08-19T08:33:23;101141.97;;;22.71
29701;BMP280;57917;51.380;-0.176;2022-08-19T08:39:56;101134.97;;;22.85
29701;BMP280;57917;51.380;-0.176;2022-08-19T08:46:14;101138.53;;;22.89
29701;BMP280;57917;51.380;-0.176;2022-08-19T08:52:55;101134.97;;;23.20
29701;BMP280;57917;51.380;-0.176;2022-08-19T08:58:52;101141.09;;;23.17
29701;BMP280;57917;51.380;-0.176;2022-08-19T09:04:42;101130.44;;;23.62
29701;BMP280;57917;51.380;-0.176;2022-08-19T09:16:53;101128.38;;;23.74
29701;BMP280;57917;51.380;-0.176;2022-08-19T09:22:42;101119.13;;;24.17
29701;BMP280;57917;51.380;-0.176;2022-08-19T09:28:36;101124.25;;;24.48
29701;BMP280;57917;51.380;-0.176;2022-08-19T09:34:25;101117.81;;;24.56
29701;BMP280;57917;51.380;-0.176;2022-08-19T09:40:12;101111.34;;;24.64
29701;BMP280;57917;51.380;-0.176;2022-08-19T09:46:02;101111.88;;;24.50
29701;BMP280;57917;51.380;-0.176;2022-08-19T09:51:52;101122.97;;;24.64
29701;BMP280;57917;51.380;-0.176;2022-08-19T09:57:43;101121.44;;;24.18
29701;BMP280;57917;51.380;-0.176;2022-08-19T10:03:53;101129.81;;;24.10
29701;BMP280;57917;51.380;-0.176;2022-08-19T10:10:35;101140.84;;;24.01
29701;BMP280;57917;51.380;-0.176;2022-08-19T10:16:29;101132.06;;;23.85
29701;BMP280;57917;51.380;-0.176;2022-08-19T10:22:43;101137.50;;;23.66
29701;BMP280;57917;51.380;-0.176;2022-08-19T10:28:33;101140.19;;;23.47
29701;BMP280;57917;51.380;-0.176;2022-08-19T10:41:39;101151.06;;;23.51
29701;BMP280;57917;51.380;-0.176;2022-08-19T10:54:16;101160.19;;;23.81
29701;BMP280;57917;51.380;-0.176;2022-08-19T11:00:19;101157.09;;;24.24
29701;BMP280;57917;51.380;-0.176;2022-08-19T11:06:10;101143.84;;;25.19
29701;BMP280;57917;51.380;-0.176;2022-08-19T11:12:06;101149.06;;;25.35
29701;BMP280;57917;51.380;-0.176;2022-08-19T11:17:56;101148.47;;;25.19
29701;BMP280;57917;51.380;-0.176;2022-08-19T11:23:53;101159.22;;;24.60
29701;BMP280;57917;51.380;-0.176;2022-08-19T11:29:40;101164.16;;;24.32
29701;BMP280;57917;51.380;-0.176;2022-08-19T11:35:39;101158.84;;;24.35
29701;BMP280;57917;51.380;-0.176;2022-08-19T11:41:29;101160.34;;;24.33
29701;BMP280;57917;51.380;-0.176;2022-08-19T11:47:16;101133.38;;;24.40
29701;BMP280;57917;51.380;-0.176;2022-08-19T11:53:03;101141.66;;;24.73
29701;BMP280;57917;51.380;-0.176;2022-08-19T11:58:52;101141.66;;;25.02
29701;BMP280;57917;51.380;-0.176;2022-08-19T12:04:39;101145.19;;;25.69
29701;BMP280;57917;51.380;-0.176;2022-08-19T12:18:29;101134.97;;;26.42
29701;BMP280;57917;51.380;-0.176;2022-08-19T12:24:19;101135.09;;;26.63
29701;BMP280;57917;51.380;-0.176;2022-08-19T12:30:13;101141.22;;;26.50
29701;BMP280;57917;51.380;-0.176;2022-08-19T12:36:07;101135.91;;;26.71
29701;BMP280;57917;51.380;-0.176;2022-08-19T12:42:01;101138.13;;;26.01
29701;BMP280;57917;51.380;-0.176;2022-08-19T12:47:54;101147.88;;;25.32
29701;BMP280;57917;51.380;-0.176;2022-08-19T12:53:44;101133.59;;;25.72
29701;BMP280;57917;51.380;-0.176;2022-08-19T12:59:31;101131.06;;;25.53
29701;BMP280;57917;51.380;-0.176;2022-08-19T13:05:23;101118.63;;;25.52
29701;BMP280;57917;51.380;-0.176;2022-08-19T13:11:13;101116.25;;;25.47
29701;BMP280;57917;51.380;-0.176;2022-08-19T13:17:00;101124.47;;;25.90
29701;BMP280;57917;51.380;-0.176;2022-08-19T13:22:48;101108.69;;;26.06
29701;BMP280;57917;51.380;-0.176;2022-08-19T13:28:35;101107.66;;;26.18
29701;BMP280;57917;51.380;-0.176;2022-08-19T13:34:41;101093.19;;;26.61
29701;BMP280;57917;51.380;-0.176;2022-08-19T13:40:28;101111.03;;;26.62
29701;BMP280;57917;51.380;-0.176;2022-08-19T13:46:15;101105.66;;;26.11
29701;BMP280;57917;51.380;-0.176;2022-08-19T13:52:11;101103.03;;;26.25
29701;BMP280;57917;51.380;-0.176;2022-08-19T13:58:09;101096.72;;;26.07
29701;BMP280;57917;51.380;-0.176;2022-08-19T14:04:37;101088.81;;;25.88
29701;BMP280;57917;51.380;-0.176;2022-08-19T14:10:59;101075.22;;;25.88
29701;BMP280;57917;51.380;-0.176;2022-08-19T14:17:39;101069.44;;;25.50
29701;BMP280;57917;51.380;-0.176;2022-08-19T14:24:04;101083.53;;;25.26
29701;BMP280;57917;51.380;-0.176;2022-08-19T14:30:01;101077.19;;;25.15
29701;BMP280;57917;51.380;-0.176;2022-08-19T14:35:52;101081.03;;;25.47
29701;BMP280;57917;51.380;-0.176;2022-08-19T14:42:19;101072.34;;;25.71
29701;BMP280;57917;51.380;-0.176;2022-08-19T14:48:08;101079.41;;;25.06
29701;BMP280;57917;51.380;-0.176;2022-08-19T14:54:19;101091.13;;;25.17
29701;BMP280;57917;51.380;-0.176;2022-08-19T15:00:32;101093.28;;;25.34
29701;BMP280;57917;51.380;-0.176;2022-08-19T15:06:54;101092.59;;;25.11
29701;BMP280;57917;51.380;-0.176;2022-08-19T15:12:52;101092.97;;;25.06
29701;BMP280;57917;51.380;-0.176;2022-08-19T15:18:48;101101.84;;;25.06
29701;BMP280;57917;51.380;-0.176;2022-08-19T15:24:49;101104.94;;;25.05
29701;BMP280;57917;51.380;-0.176;2022-08-19T15:30:59;101110.97;;;25.24
29701;BMP280;57917;51.380;-0.176;2022-08-19T15:36:51;101119.25;;;24.76
29701;BMP280;57917;51.380;-0.176;2022-08-19T15:43:14;101121.09;;;24.68
29701;BMP280;57917;51.380;-0.176;2022-08-19T15:49:40;101130.09;;;24.76
29701;BMP280;57917;51.380;-0.176;2022-08-19T15:56:32;101133.50;;;24.99
29701;BMP280;57917;51.380;-0.176;2022-08-19T16:02:54;101133.19;;;24.78
29701;BMP280;57917;51.380;-0.176;2022-08-19T16:09:07;101132.31;;;24.70
29701;BMP280;57917;51.380;-0.176;2022-08-19T16:15:22;101145.47;;;24.46
29701;BMP280;57917;51.380;-0.176;2022-08-19T16:21:36;101146.31;;;24.50
29701;BMP280;57917;51.380;-0.176;2022-08-19T16:28:07;101154.75;;;24.45
29701;BMP280;57917;51.380;-0.176;2022-08-19T16:34:50;101166.59;;;24.63
29701;BMP280;57917;51.380;-0.176;2022-08-19T16:40:47;101166.88;;;24.32
29701;BMP280;57917;51.380;-0.176;2022-08-19T16:47:01;101177.06;;;24.38
29701;BMP280;57917;51.380;-0.176;2022-08-19T16:52:59;101176.34;;;23.77
29701;BMP280;57917;51.380;-0.176;2022-08-19T16:58:50;101176.84;;;23.64
29701;BMP280;57917;51.380;-0.176;2022-08-19T17:04:37;101187.06;;;23.74
29701;BMP280;57917;51.380;-0.176;2022-08-19T17:10:29;101182.53;;;23.59
29701;BMP280;57917;51.380;-0.176;2022-08-19T17:16:27;101194.06;;;23.75
29701;BMP280;57917;51.380;-0.176;2022-08-19T17:22:29;101193.31;;;23.78
29701;BMP280;57917;51.380;-0.176;2022-08-19T17:28:35;101194.47;;;23.77
29701;BMP280;57917;51.380;-0.176;2022-08-19T17:34:26;101201.16;;;23.83
29701;BMP280;57917;51.380;-0.176;2022-08-19T17:40:17;101204.16;;;23.40
29701;BMP280;57917;51.380;-0.176;2022-08-19T17:46:17;101212.22;;;23.21
29701;BMP280;57917;51.380;-0.176;2022-08-19T17:52:06;101213.50;;;23.11
29701;BMP280;57917;51.380;-0.176;2022-08-19T17:58:24;101234.06;;;23.31
29701;BMP280;57917;51.380;-0.176;2022-08-19T18:04:23;101230.00;;;23.41
29701;BMP280;57917;51.380;-0.176;2022-08-19T18:10:13;101225.94;;;23.31
29701;BMP280;57917;51.380;-0.176;2022-08-19T18:16:08;101229.47;;;23.01
29701;BMP280;57917;51.380;-0.176;2022-08-19T18:21:58;101238.75;;;22.84
29701;BMP280;57917;51.380;-0.176;2022-08-19T18:27:52;101244.63;;;22.90
29701;BMP280;57917;51.380;-0.176;2022-08-19T18:34:20;101247.03;;;22.64
29701;BMP280;57917;51.380;-0.176;2022-08-19T18:40:23;101257.47;;;22.50
29701;BMP280;57917;51.380;-0.176;2022-08-19T18:46:31;101264.34;;;22.32
29701;BMP280;57917;51.380;-0.176;2022-08-19T18:52:48;101270.84;;;22.31
29701;BMP280;57917;51.380;-0.176;2022-08-19T18:58:38;101276.94;;;22.28
29701;BMP280;57917;51.380;-0.176;2022-08-19T19:04:29;101279.53;;;22.24
29701;BMP280;57917;51.380;-0.176;2022-08-19T19:10:18;101290.66;;;22.23
29701;BMP280;57917;51.380;-0.176;2022-08-19T19:16:06;101285.47;;;22.02
29701;BMP280;57917;51.380;-0.176;2022-08-19T19:21:56;101301.63;;;22.02
29701;BMP280;57917;51.380;-0.176;2022-08-19T19:27:44;101317.84;;;21.90
29701;BMP280;57917;51.380;-0.176;2022-08-19T19:33:32;101317.38;;;21.88
29701;BMP280;57917;51.380;-0.176;2022-08-19T19:39:19;101320.22;;;21.55
29701;BMP280;57917;51.380;-0.176;2022-08-19T19:45:28;101331.44;;;21.69
29701;BMP280;57917;51.380;-0.176;2022-08-19T19:51:16;101333.03;;;21.46
29701;BMP280;57917;51.380;-0.176;2022-08-19T19:57:06;101342.31;;;21.37
29701;BMP280;57917;51.380;-0.176;2022-08-19T20:02:53;101339.50;;;21.33
29701;BMP280;57917;51.380;-0.176;2022-08-19T20:08:45;101342.84;;;21.18
29701;BMP280;57917;51.380;-0.176;2022-08-19T20:14:51;101354.50;;;21.10
29701;BMP280;57917;51.380;-0.176;2022-08-19T20:20:50;101354.22;;;20.91
29701;BMP280;57917;51.380;-0.176;2022-08-19T20:26:45;101365.41;;;20.81
29701;BMP280;57917;51.380;-0.176;2022-08-19T20:32:40;101372.91;;;20.76
29701;BMP280;57917;51.380;-0.176;2022-08-19T20:38:28;101371.19;;;20.71
29701;BMP280;57917;51.380;-0.176;2022-08-19T20:44:16;101375.25;;;20.57
29701;BMP280;57917;51.380;-0.176;2022-08-19T20:50:18;101380.13;;;20.43
29701;BMP280;57917;51.380;-0.176;2022-08-19T20:56:14;101399.63;;;20.31
29701;BMP280;57917;51.380;-0.176;2022-08-19T21:02:07;101393.81;;;20.29
29701;BMP280;57917;51.380;-0.176;2022-08-19T21:08:04;101400.72;;;20.18
29701;BMP280;57917;51.380;-0.176;2022-08-19T21:13:51;101396.44;;;20.17
29701;BMP280;57917;51.380;-0.176;2022-08-19T21:19:37;101406.72;;;20.15
29701;BMP280;57917;51.380;-0.176;2022-08-19T21:25:24;101413.09;;;20.02
29701;BMP280;57917;51.380;-0.176;2022-08-19T21:31:11;101408.91;;;19.93
29701;BMP280;57917;51.380;-0.176;2022-08-19T21:37:00;101411.63;;;19.84
29701;BMP280;57917;51.380;-0.176;2022-08-19T21:42:47;101416.69;;;19.69
29701;BMP280;57917;51.380;-0.176;2022-08-19T21:48:34;101414.19;;;19.64
29701;BMP280;57917;51.380;-0.176;2022-08-19T21:54:25;101414.22;;;19.55
29701;BMP280;57917;51.380;-0.176;2022-08-19T22:00:23;101419.78;;;19.42
29701;BMP280;57917;51.380;-0.176;2022-08-19T22:06:10;101427.41;;;19.31
29701;BMP280;57917;51.380;-0.176;2022-08-19T22:11:57;101431.06;;;19.18
29701;BMP280;57917;51.380;-0.176;2022-08-19T22:17:44;101430.91;;;19.15
29701;BMP280;57917;51.380;-0.176;2022-08-19T22:23:37;101437.53;;;19.00
29701;BMP280;57917;51.380;-0.176;2022-08-19T22:29:24;101447.75;;;18.98
29701;BMP280;57917;51.380;-0.176;2022-08-19T22:35:21;101453.13;;;18.98
29701;BMP280;57917;51.380;-0.176;2022-08-19T22:41:08;101448.84;;;18.71
29701;BMP280;57917;51.380;-0.176;2022-08-19T22:46:55;101457.16;;;18.53
29701;BMP280;57917;51.380;-0.176;2022-08-19T22:52:42;101465.53;;;18.51
29701;BMP280;57917;51.380;-0.176;2022-08-19T22:58:37;101467.41;;;18.42
29701;BMP280;57917;51.380;-0.176;2022-08-19T23:04:26;101461.88;;;18.39
29701;BMP280;57917;51.380;-0.176;2022-08-19T23:10:13;101464.88;;;18.37
29701;BMP280;57917;51.380;-0.176;2022-08-19T23:16:12;101466.84;;;18.23
29701;BMP280;57917;51.380;-0.176;2022-08-19T23:22:04;101471.81;;;18.08
29701;BMP280;57917;51.380;-0.176;2022-08-19T23:27:52;101468.94;;;17.96
29701;BMP280;57917;51.380;-0.176;2022-08-19T23:34:00;101468.94;;;17.96
29701;BMP280;57917;51.380;-0.176;2022-08-19T23:39:49;101478.84;;;17.95
29701;BMP280;57917;51.380;-0.176;2022-08-19T23:45:39;101461.41;;;17.76
29701;BMP280;57917;51.380;-0.176;2022-08-19T23:51:39;101467.59;;;17.85
29701;BMP280;57917;51.380;-0.176;2022-08-19T23:57:32;101462.25;;;17.85
